Time;durP1;ratioP1;P1;durP2;ratioP2;P2;SDS_P1;SDS_P2;PMS_P1;PMS_P2;Temp;Humidity;BMP_temperature;BMP_pressure;BME280_temperature;BME280_humidity;BME280_pressure;Samples;Min_cycle;Max_cycle;Signal;HPM_P1;HPM_P2
2021/09/03 00:00:44;;;;;;;3.10;2.80;;;23.50;42.50;;;;;;5037602;28;20240;-43
2021/09/03 00:03:10;;;;;;;3.45;2.88;;;23.50;42.50;;;;;;5031523;28;20308;-40
2021/09/03 00:05:37;;;;;;;3.53;3.22;;;23.50;42.50;;;;;;5031033;28;20221;-44
2021/09/03 00:08:03;;;;;;;3.22;2.90;;;23.50;42.60;;;;;;5039657;28;20238;-43
2021/09/03 00:10:29;;;;;;;2.88;2.60;;;23.50;42.50;;;;;;5042137;28;20206;-42
2021/09/03 00:12:56;;;;;;;2.97;2.58;;;23.50;42.50;;;;;;5031542;28;20206;-45
2021/09/03 00:15:23;;;;;;;3.33;2.95;;;23.50;42.50;;;;;;5035617;28;20230;-45
2021/09/03 00:17:49;;;;;;;3.70;3.40;;;23.50;42.60;;;;;;5037201;28;20236;-43
2021/09/03 00:20:16;;;;;;;3.15;2.80;;;23.50;42.50;;;;;;5049619;28;20241;-46
2021/09/03 00:22:42;;;;;;;6.43;2.85;;;23.50;42.50;;;;;;5030491;28;20205;-41
2021/09/03 00:25:08;;;;;;;3.45;2.92;;;23.50;42.50;;;;;;5031931;28;20221;-49
2021/09/03 00:27:35;;;;;;;3.08;2.78;;;23.50;42.50;;;;;;5047696;28;20208;-45
2021/09/03 00:30:01;;;;;;;3.25;2.95;;;23.50;42.50;;;;;;5042564;28;20212;-42
2021/09/03 00:32:28;;;;;;;3.17;2.88;;;23.50;42.50;;;;;;5031957;28;20202;-46
2021/09/03 00:34:54;;;;;;;3.20;2.90;;;23.50;42.70;;;;;;5031463;28;20226;-44
2021/09/03 00:37:21;;;;;;;3.08;2.78;;;23.50;42.70;;;;;;5045096;28;20285;-44
2021/09/03 00:39:47;;;;;;;3.13;2.83;;;23.50;42.60;;;;;;5030688;28;20233;-48
2021/09/03 00:42:14;;;;;;;2.60;2.40;;;23.50;42.60;;;;;;5029088;28;20304;-48
2021/09/03 00:44:40;;;;;;;3.00;2.80;;;23.50;42.70;;;;;;5030080;28;20228;-45
2021/09/03 00:47:06;;;;;;;3.80;2.83;;;23.50;42.70;;;;;;5029841;28;20198;-49
2021/09/03 00:49:33;;;;;;;2.90;2.70;;;23.50;42.70;;;;;;5031393;28;20206;-44
2021/09/03 00:51:59;;;;;;;2.95;2.53;;;23.50;42.80;;;;;;5030181;28;20195;-45
2021/09/03 00:54:26;;;;;;;2.58;2.38;;;23.50;42.80;;;;;;5041897;28;20225;-43
2021/09/03 00:56:52;;;;;;;2.70;2.45;;;23.50;43.40;;;;;;5050823;28;20202;-46
2021/09/03 00:59:19;;;;;;;3.38;3.08;;;23.50;42.70;;;;;;5035779;28;20206;-44
2021/09/03 01:01:45;;;;;;;3.03;2.78;;;23.50;42.80;;;;;;5043050;28;20197;-46
2021/09/03 01:04:11;;;;;;;3.22;2.92;;;23.50;42.80;;;;;;5046387;28;20302;-45
2021/09/03 01:06:38;;;;;;;2.95;2.58;;;23.50;42.80;;;;;;5038162;28;20204;-42
2021/09/03 01:09:04;;;;;;;3.78;2.88;;;23.50;42.90;;;;;;5043443;28;20216;-43
2021/09/03 01:11:31;;;;;;;3.97;2.60;;;23.50;42.90;;;;;;5047374;28;20202;-48
2021/09/03 01:13:57;;;;;;;2.97;2.67;;;23.50;42.90;;;;;;5035962;28;20225;-45
2021/09/03 01:16:24;;;;;;;4.05;3.03;;;23.50;43.00;;;;;;5034727;28;20200;-39
2021/09/03 01:18:50;;;;;;;3.40;3.10;;;23.50;42.90;;;;;;5034625;28;20198;-42
2021/09/03 01:21:16;;;;;;;3.03;2.72;;;23.50;42.90;;;;;;5034097;28;20230;-41
2021/09/03 01:23:43;;;;;;;3.10;2.80;;;23.50;43.60;;;;;;5034311;28;20213;-39
2021/09/03 01:26:10;;;;;;;2.80;2.60;;;23.50;43.00;;;;;;5039670;28;20197;-44
2021/09/03 01:28:37;;;;;;;3.33;2.88;;;23.50;43.00;;;;;;5036842;28;20230;-42
2021/09/03 01:31:03;;;;;;;3.05;2.72;;;23.50;42.90;;;;;;5033721;28;20213;-45
2021/09/03 01:33:30;;;;;;;3.20;2.90;;;23.50;42.90;;;;;;5047033;28;20205;-47
2021/09/03 01:35:56;;;;;;;2.90;2.60;;;23.50;43.00;;;;;;5033284;28;20218;-47
2021/09/03 01:38:23;;;;;;;3.70;2.95;;;23.50;42.90;;;;;;5033673;28;20203;-44
2021/09/03 01:40:49;;;;;;;2.90;2.70;;;23.50;43.00;;;;;;5032941;28;20276;-47
2021/09/03 01:43:15;;;;;;;2.88;2.67;;;23.50;43.00;;;;;;5033268;28;20222;-41
2021/09/03 01:45:42;;;;;;;2.55;2.33;;;23.50;42.90;;;;;;5037427;28;20230;-45
2021/09/03 01:48:08;;;;;;;2.83;2.63;;;23.50;43.00;;;;;;5033932;28;20206;-48
2021/09/03 01:50:35;;;;;;;2.90;2.60;;;23.50;43.00;;;;;;5033363;28;20205;-44
2021/09/03 01:53:01;;;;;;;2.58;2.38;;;23.50;43.00;;;;;;5033761;28;20285;-42
2021/09/03 01:55:28;;;;;;;2.90;2.67;;;23.50;43.00;;;;;;5034988;28;20219;-46
2021/09/03 01:57:54;;;;;;;2.88;2.58;;;23.50;43.10;;;;;;5040243;28;20212;-48
2021/09/03 02:00:20;;;;;;;2.70;2.50;;;23.50;43.00;;;;;;5041069;28;20236;-47
2021/09/03 02:02:47;;;;;;;2.80;2.60;;;23.50;43.00;;;;;;5036781;28;20198;-42
2021/09/03 02:05:13;;;;;;;2.85;2.55;;;23.50;43.00;;;;;;5043359;28;20217;-47
2021/09/03 02:07:40;;;;;;;3.05;2.75;;;23.50;43.00;;;;;;5052013;28;20216;-42
2021/09/03 02:10:06;;;;;;;2.70;2.42;;;23.50;43.10;;;;;;5033067;28;20213;-45
2021/09/03 02:12:33;;;;;;;3.38;3.08;;;23.50;43.10;;;;;;5032698;28;20198;-41
2021/09/03 02:14:59;;;;;;;2.65;2.42;;;23.50;43.10;;;;;;5033509;28;20210;-46
2021/09/03 02:17:25;;;;;;;2.92;2.63;;;23.50;43.10;;;;;;5032322;28;20209;-44
2021/09/03 02:19:52;;;;;;;3.00;2.70;;;23.50;43.10;;;;;;5032676;28;20199;-45
2021/09/03 02:22:18;;;;;;;3.40;2.78;;;23.40;43.00;;;;;;5033627;28;20203;-41
2021/09/03 02:24:45;;;;;;;2.88;2.67;;;23.50;43.10;;;;;;5033299;28;20234;-40
2021/09/03 02:27:11;;;;;;;2.72;2.47;;;23.50;43.10;;;;;;5041979;28;20198;-43
2021/09/03 02:29:38;;;;;;;2.45;2.25;;;23.40;43.00;;;;;;5052829;28;20568;-39
2021/09/03 02:32:04;;;;;;;3.50;2.72;;;23.50;43.10;;;;;;5048887;28;20569;-39
2021/09/03 02:34:30;;;;;;;2.97;2.67;;;23.50;43.10;;;;;;5035805;28;20600;-45
2021/09/03 02:36:57;;;;;;;2.40;2.20;;;23.50;43.10;;;;;;5033119;28;20386;-44
2021/09/03 02:39:23;;;;;;;3.30;2.60;;;23.50;43.10;;;;;;5032650;28;20575;-41
2021/09/03 02:41:50;;;;;;;3.45;2.53;;;23.40;43.10;;;;;;5043134;28;20713;-44
2021/09/03 02:44:16;;;;;;;2.50;2.30;;;23.50;43.10;;;;;;5051184;28;20587;-45
2021/09/03 02:46:43;;;;;;;2.65;2.45;;;23.50;43.10;;;;;;5050287;28;20194;-41
2021/09/03 02:49:09;;;;;;;2.78;2.58;;;23.50;43.20;;;;;;5052061;28;20217;-44
2021/09/03 02:51:36;;;;;;;3.00;2.80;;;23.40;43.00;;;;;;5039749;28;20208;-42
2021/09/03 02:54:03;;;;;;;2.90;2.70;;;23.50;43.10;;;;;;5032045;28;20223;-42
2021/09/03 02:56:29;;;;;;;3.33;2.70;;;23.50;43.10;;;;;;5030079;28;20198;-44
2021/09/03 02:58:55;;;;;;;2.75;2.50;;;23.40;43.10;;;;;;5032070;28;20216;-49
2021/09/03 03:01:22;;;;;;;2.58;2.38;;;23.40;43.10;;;;;;5032208;28;20222;-48
2021/09/03 03:03:48;;;;;;;2.55;2.35;;;23.40;43.10;;;;;;5032301;28;20210;-43
2021/09/03 03:06:15;;;;;;;2.65;2.35;;;23.50;43.20;;;;;;5036319;28;20202;-42
2021/09/03 03:08:41;;;;;;;2.75;2.55;;;23.40;43.10;;;;;;5032815;28;20202;-40
2021/09/03 03:11:08;;;;;;;2.88;2.67;;;23.50;43.20;;;;;;5043969;28;20198;-43
2021/09/03 03:13:34;;;;;;;2.70;2.47;;;23.40;43.10;;;;;;5049040;28;20226;-39
2021/09/03 03:16:01;;;;;;;3.00;2.70;;;23.50;43.20;;;;;;5037253;28;20647;-40
2021/09/03 03:18:27;;;;;;;2.95;2.70;;;23.40;43.10;;;;;;5032753;28;20305;-45
2021/09/03 03:20:54;;;;;;;2.75;2.55;;;23.40;43.80;;;;;;5040427;28;20233;-41
2021/09/03 03:23:20;;;;;;;2.92;2.72;;;23.40;43.10;;;;;;5052220;28;20580;-46
2021/09/03 03:25:46;;;;;;;3.50;2.67;;;23.40;43.10;;;;;;5039749;28;20585;-45
2021/09/03 03:28:13;;;;;;;3.13;2.65;;;23.40;43.10;;;;;;5038206;28;20509;-45
2021/09/03 03:30:39;;;;;;;2.50;2.30;;;23.40;43.10;;;;;;5037439;28;20650;-47
2021/09/03 03:33:06;;;;;;;2.90;2.67;;;23.50;43.20;;;;;;5052108;28;20690;-43
2021/09/03 03:35:32;;;;;;;2.60;2.40;;;23.40;43.10;;;;;;5042688;28;20707;-46
2021/09/03 03:37:59;;;;;;;2.60;2.40;;;23.40;43.10;;;;;;5051953;28;20205;-42
2021/09/03 03:40:25;;;;;;;2.50;2.30;;;23.40;43.10;;;;;;5040839;28;20226;-42
2021/09/03 03:42:51;;;;;;;2.88;2.67;;;23.40;43.10;;;;;;5048243;28;20216;-42
2021/09/03 03:45:18;;;;;;;3.00;2.70;;;23.40;43.20;;;;;;5048848;28;20221;-45
2021/09/03 03:47:44;;;;;;;3.03;2.42;;;23.40;43.20;;;;;;5048022;28;20293;-42
2021/09/03 03:50:11;;;;;;;2.75;2.55;;;23.40;43.20;;;;;;5034477;28;20220;-45
2021/09/03 03:52:37;;;;;;;2.80;2.55;;;23.40;43.90;;;;;;5050021;28;20202;-45
2021/09/03 03:55:04;;;;;;;2.58;2.38;;;23.40;43.20;;;;;;5049988;28;20222;-45
2021/09/03 03:57:30;;;;;;;2.50;2.30;;;23.40;43.20;;;;;;5050496;28;20204;-44
2021/09/03 03:59:56;;;;;;;3.55;2.85;;;23.40;43.30;;;;;;5032884;28;20212;-43
2021/09/03 04:02:23;;;;;;;3.33;2.75;;;23.40;43.30;;;;;;5031373;28;20244;-42
2021/09/03 04:04:49;;;;;;;2.75;2.38;;;23.40;43.20;;;;;;5031463;28;20244;-44
2021/09/03 04:07:16;;;;;;;2.88;2.47;;;23.40;43.20;;;;;;5029960;28;20205;-44
2021/09/03 04:09:42;;;;;;;2.42;2.20;;;23.40;43.20;;;;;;5032981;28;20195;-40
2021/09/03 04:12:09;;;;;;;3.53;2.40;;;23.40;43.30;;;;;;5044475;28;20206;-48
2021/09/03 04:14:36;;;;;;;2.50;2.30;;;23.50;43.40;;;;;;5038121;28;20230;-46
2021/09/03 04:17:02;;;;;;;3.78;2.95;;;23.40;43.30;;;;;;5031735;28;20718;-43
2021/09/03 04:19:29;;;;;;;2.80;2.50;;;23.40;43.30;;;;;;5039157;28;20208;-45
2021/09/03 04:21:55;;;;;;;2.72;2.53;;;23.40;43.30;;;;;;5051219;28;20237;-41
2021/09/03 04:24:22;;;;;;;2.70;2.42;;;23.50;43.40;;;;;;5041878;28;20222;-48
2021/09/03 04:26:48;;;;;;;2.55;2.35;;;23.40;43.30;;;;;;5039538;28;20206;-48
2021/09/03 04:29:14;;;;;;;2.70;2.50;;;23.40;43.30;;;;;;5045031;28;20194;-44
2021/09/03 04:31:41;;;;;;;2.30;2.10;;;23.40;43.30;;;;;;5050249;28;20190;-47
2021/09/03 04:34:07;;;;;;;2.47;2.28;;;23.40;43.30;;;;;;5033446;28;20304;-45
2021/09/03 04:36:34;;;;;;;2.38;2.17;;;23.40;43.30;;;;;;5031205;28;20211;-43
2021/09/03 04:39:00;;;;;;;2.40;2.20;;;23.40;43.30;;;;;;5030640;28;20320;-46
2021/09/03 04:41:27;;;;;;;2.72;2.25;;;23.50;43.40;;;;;;5032937;28;20226;-44
2021/09/03 04:43:53;;;;;;;2.35;2.15;;;23.40;43.40;;;;;;5030940;28;20226;-44
2021/09/03 04:46:20;;;;;;;2.78;2.47;;;23.40;43.30;;;;;;5049393;28;20212;-43
2021/09/03 04:48:46;;;;;;;2.50;2.30;;;23.40;43.30;;;;;;5050274;28;20205;-44
2021/09/03 04:51:13;;;;;;;3.30;2.08;;;23.40;43.30;;;;;;5030459;28;20198;-45
2021/09/03 04:53:39;;;;;;;2.90;2.60;;;23.40;43.40;;;;;;5030751;28;20323;-45
2021/09/03 04:56:06;;;;;;;2.88;2.58;;;23.40;43.40;;;;;;5046050;28;20199;-45
2021/09/03 04:58:32;;;;;;;2.67;2.47;;;23.40;43.40;;;;;;5036352;28;20209;-40
2021/09/03 05:00:59;;;;;;;2.72;2.30;;;23.40;43.40;;;;;;5035148;28;20230;-41
2021/09/03 05:03:25;;;;;;;2.55;2.35;;;23.40;43.40;;;;;;5043423;28;20717;-45
2021/09/03 05:05:52;;;;;;;2.90;2.60;;;23.40;43.40;;;;;;5035304;28;20565;-40
2021/09/03 05:08:18;;;;;;;2.47;2.28;;;23.40;43.40;;;;;;5030123;28;20565;-42
2021/09/03 05:10:45;;;;;;;2.55;2.33;;;23.40;43.40;;;;;;5029835;28;20655;-42
2021/09/03 05:13:11;;;;;;;2.65;2.45;;;23.40;43.40;;;;;;5025052;28;20712;-41
2021/09/03 05:15:37;;;;;;;2.60;2.40;;;23.40;43.40;;;;;;5033281;28;20207;-44
2021/09/03 05:18:04;;;;;;;2.30;2.10;;;23.40;43.40;;;;;;5030696;28;20213;-44
2021/09/03 05:20:30;;;;;;;3.63;2.30;;;23.40;43.40;;;;;;5040396;28;20721;-42
2021/09/03 05:22:57;;;;;;;3.47;2.30;;;23.40;43.50;;;;;;5035893;28;20232;-45
2021/09/03 05:25:23;;;;;;;2.85;2.30;;;23.40;43.50;;;;;;5050176;28;20267;-47
2021/09/03 05:27:50;;;;;;;2.40;2.20;;;23.40;43.50;;;;;;5047236;28;20233;-43
2021/09/03 05:30:16;;;;;;;2.40;2.20;;;23.40;43.50;;;;;;5038241;28;20202;-45
2021/09/03 05:32:43;;;;;;;2.60;2.40;;;23.40;43.50;;;;;;5029889;28;20198;-43
2021/09/03 05:35:09;;;;;;;2.97;2.65;;;23.40;43.50;;;;;;5030612;28;20211;-50
2021/09/03 05:37:36;;;;;;;2.67;2.42;;;23.40;43.50;;;;;;5030179;28;20290;-43
2021/09/03 05:40:02;;;;;;;2.47;2.28;;;23.40;43.50;;;;;;5031155;28;20202;-47
2021/09/03 05:42:28;;;;;;;2.60;2.20;;;23.40;43.50;;;;;;5041413;28;20226;-45
2021/09/03 05:44:55;;;;;;;2.45;2.25;;;23.40;43.50;;;;;;5034195;28;20237;-44
2021/09/03 05:47:21;;;;;;;2.50;2.30;;;23.40;43.50;;;;;;5033950;28;20194;-42
2021/09/03 05:49:48;;;;;;;3.17;2.53;;;23.40;43.50;;;;;;5050923;28;20285;-43
2021/09/03 05:52:14;;;;;;;2.63;2.42;;;23.40;43.50;;;;;;5043228;28;20203;-44
2021/09/03 05:54:41;;;;;;;2.70;2.10;;;23.40;43.50;;;;;;5051187;28;20228;-42
2021/09/03 05:57:07;;;;;;;2.38;2.20;;;23.40;43.50;;;;;;5039019;28;20206;-44
2021/09/03 05:59:33;;;;;;;2.72;2.42;;;23.40;43.50;;;;;;5033848;28;20198;-41
2021/09/03 06:02:00;;;;;;;2.30;2.10;;;23.40;43.50;;;;;;5043607;28;20229;-43
2021/09/03 06:04:26;;;;;;;2.25;2.08;;;23.40;43.50;;;;;;5052855;28;20252;-46
2021/09/03 06:06:53;;;;;;;2.80;2.58;;;23.40;43.50;;;;;;5040040;28;20199;-40
2021/09/03 06:09:19;;;;;;;2.33;2.13;;;23.40;43.50;;;;;;5050531;28;20202;-43
2021/09/03 06:11:46;;;;;;;2.58;2.20;;;23.40;43.50;;;;;;5041405;28;20209;-46
2021/09/03 06:14:12;;;;;;;2.53;2.20;;;23.40;43.50;;;;;;5034056;28;20427;-41
2021/09/03 06:16:38;;;;;;;2.35;2.17;;;23.40;43.50;;;;;;5041749;28;20201;-47
2021/09/03 06:19:05;;;;;;;2.97;2.50;;;23.40;43.50;;;;;;5051803;28;20208;-47
2021/09/03 06:21:31;;;;;;;2.55;2.35;;;23.40;43.50;;;;;;5042225;28;20256;-45
2021/09/03 06:23:58;;;;;;;2.55;2.20;;;23.40;43.50;;;;;;5033429;28;20215;-39
2021/09/03 06:26:25;;;;;;;3.67;2.50;;;23.40;43.40;;;;;;5032732;28;20199;-42
2021/09/03 06:28:51;;;;;;;2.65;2.10;;;23.50;43.50;;;;;;5040412;28;20292;-46
2021/09/03 06:31:18;;;;;;;2.40;2.20;;;23.40;43.50;;;;;;5042601;28;20670;-43
2021/09/03 06:33:44;;;;;;;2.55;2.35;;;23.40;43.40;;;;;;5050038;28;20300;-39
2021/09/03 06:36:11;;;;;;;2.55;2.20;;;23.50;43.50;;;;;;5050231;28;20198;-41
2021/09/03 06:38:37;;;;;;;2.53;2.30;;;23.40;43.50;;;;;;5044798;28;20199;-39
2021/09/03 06:41:03;;;;;;;3.40;2.42;;;23.40;43.50;;;;;;5033574;28;20249;-38
2021/09/03 06:43:30;;;;;;;3.13;2.50;;;23.40;43.50;;;;;;5032687;28;20246;-40
2021/09/03 06:45:56;;;;;;;3.05;2.10;;;23.40;43.40;;;;;;5032082;28;20234;-42
2021/09/03 06:48:23;;;;;;;3.15;2.30;;;23.40;43.40;;;;;;5039959;28;20201;-42
2021/09/03 06:50:49;;;;;;;2.70;2.45;;;23.40;43.40;;;;;;5031319;28;20230;-38
2021/09/03 06:53:16;;;;;;;2.30;2.10;;;23.50;43.50;;;;;;5031077;28;20234;-40
2021/09/03 06:55:42;;;;;;;2.78;2.58;;;23.50;43.50;;;;;;5032319;28;20228;-38
2021/09/03 06:58:09;;;;;;;2.38;2.17;;;23.40;43.40;;;;;;5041565;28;20542;-38
2021/09/03 07:00:35;;;;;;;2.65;2.40;;;23.50;43.50;;;;;;5051144;28;20574;-38
2021/09/03 07:03:02;;;;;;;2.60;2.40;;;23.40;43.40;;;;;;5050127;28;20312;-41
2021/09/03 07:05:28;;;;;;;2.40;2.20;;;23.40;43.40;;;;;;5047007;28;20703;-38
2021/09/03 07:07:55;;;;;;;2.42;2.15;;;23.50;43.40;;;;;;5036588;28;20654;-39
2021/09/03 07:10:21;;;;;;;2.70;2.50;;;23.50;43.50;;;;;;5036314;28;20655;-37
2021/09/03 07:12:47;;;;;;;2.63;2.42;;;23.50;43.40;;;;;;5033466;28;20592;-38
2021/09/03 07:15:14;;;;;;;3.25;2.38;;;23.50;43.50;;;;;;5035977;28;20292;-40
2021/09/03 07:17:40;;;;;;;3.58;2.40;;;23.50;43.50;;;;;;5050061;28;20227;-38
2021/09/03 07:20:07;;;;;;;4.80;3.53;;;23.50;43.50;;;;;;5050078;28;20212;-38
2021/09/03 07:22:33;;;;;;;9.57;4.68;;;23.50;43.50;;;;;;5037612;28;20236;-42
2021/09/03 07:25:00;;;;;;;7.30;5.15;;;23.40;42.40;;;;;;5038287;28;20268;-39
2021/09/03 07:27:26;;;;;;;7.60;5.43;;;23.20;42.20;;;;;;5038253;28;20292;-42
2021/09/03 07:29:53;;;;;;;6.10;5.50;;;23.10;42.10;;;;;;5050509;23;20230;-45
2021/09/03 07:32:19;;;;;;;7.13;6.25;;;23.00;42.00;;;;;;5027161;28;20232;-45
2021/09/03 07:34:45;;;;;;;6.68;6.07;;;22.90;41.90;;;;;;5026676;28;20661;-47
2021/09/03 07:37:12;;;;;;;6.57;5.65;;;22.80;42.40;;;;;;5028610;28;20202;-43
2021/09/03 07:39:39;;;;;;;6.30;5.63;;;22.80;41.80;;;;;;5027838;28;20615;-45
2021/09/03 07:42:05;;;;;;;7.70;5.55;;;23.00;42.00;;;;;;5029794;28;20314;-43
2021/09/03 07:44:32;;;;;;;5.78;5.18;;;23.00;42.10;;;;;;5027520;28;20213;-51
2021/09/03 07:46:58;;;;;;;6.93;4.90;;;23.10;42.20;;;;;;5031094;28;20234;-45
2021/09/03 07:49:25;;;;;;;6.03;5.35;;;23.20;42.20;;;;;;5018574;28;20613;-48
2021/09/03 07:51:52;;;;;;;6.18;5.25;;;23.20;42.20;;;;;;5027582;28;20601;-43
2021/09/03 07:54:18;;;;;;;7.65;5.30;;;23.30;42.30;;;;;;5030592;28;20241;-49
2021/09/03 07:56:45;;;;;;;7.50;5.38;;;23.30;42.30;;;;;;5029289;28;20549;-43
2021/09/03 07:59:11;;;;;;;5.72;5.22;;;23.30;42.30;;;;;;5029498;28;20207;-43
2021/09/03 08:01:38;;;;;;;5.55;5.05;;;23.30;42.30;;;;;;5028962;28;20309;-46
2021/09/03 08:04:04;;;;;;;6.00;4.43;;;23.40;42.50;;;;;;5030679;28;20582;-43
2021/09/03 08:06:31;;;;;;;5.10;4.60;;;23.40;42.60;;;;;;5015025;28;20547;-46
2021/09/03 08:08:57;;;;;;;5.70;5.18;;;23.40;42.40;;;;;;5013789;28;20562;-43
2021/09/03 08:11:23;;;;;;;7.20;5.47;;;23.10;41.70;;;;;;5024815;28;20571;-45
2021/09/03 08:13:50;;;;;;;4.45;4.05;;;23.20;42.20;;;;;;5013249;28;20350;-43
2021/09/03 08:16:16;;;;;;;5.00;4.60;;;23.20;42.30;;;;;;5024946;28;20264;-45
2021/09/03 08:18:43;;;;;;;4.85;4.07;;;23.30;42.40;;;;;;5026901;28;20662;-44
2021/09/03 08:21:09;;;;;;;4.95;3.88;;;23.40;42.80;;;;;;5029038;28;20666;-42
2021/09/03 08:23:36;;;;;;;4.70;4.10;;;23.40;42.90;;;;;;5026834;28;20643;-42
2021/09/03 08:26:02;;;;;;;4.88;4.07;;;23.40;42.90;;;;;;5028314;28;20671;-42
2021/09/03 08:28:29;;;;;;;4.32;3.92;;;23.40;42.90;;;;;;5011632;28;20670;-45
2021/09/03 08:30:55;;;;;;;5.93;4.10;;;23.40;42.80;;;;;;5027274;28;20578;-43
2021/09/03 08:33:21;;;;;;;6.47;4.40;;;23.50;42.90;;;;;;5029981;28;20594;-42
2021/09/03 08:35:48;;;;;;;5.63;4.13;;;23.50;43.30;;;;;;5029230;28;20618;-43
2021/09/03 08:38:14;;;;;;;4.68;3.70;;;23.50;43.30;;;;;;5028555;28;20518;-43
2021/09/03 08:40:41;;;;;;;4.93;3.53;;;23.50;43.20;;;;;;5027517;28;20221;-46
2021/09/03 08:43:07;;;;;;;10.50;3.92;;;23.50;43.50;;;;;;5029795;28;20249;-45
2021/09/03 08:45:34;;;;;;;5.70;4.22;;;23.50;43.50;;;;;;5029260;28;20198;-48
2021/09/03 08:48:00;;;;;;;4.10;3.70;;;23.50;43.40;;;;;;5029683;28;20299;-45
2021/09/03 08:50:27;;;;;;;4.90;3.67;;;23.60;43.60;;;;;;5029387;28;20190;-48
2021/09/03 08:52:53;;;;;;;6.70;4.18;;;23.50;43.50;;;;;;5018885;28;20218;-43
2021/09/03 08:55:21;;;;;;;13.05;4.72;;;23.50;43.40;;;;;;5021181;28;20199;-48
2021/09/03 08:57:47;;;;;;;5.53;4.30;;;23.60;43.60;;;;;;5030001;28;20261;-47
2021/09/03 09:00:13;;;;;;;4.90;3.97;;;23.50;43.40;;;;;;5029780;28;20206;-46
2021/09/03 09:02:40;;;;;;;4.38;3.95;;;23.50;43.30;;;;;;5017450;28;20242;-43
2021/09/03 09:05:06;;;;;;;5.57;4.35;;;23.60;43.40;;;;;;5030173;28;20202;-45
2021/09/03 09:07:33;;;;;;;5.63;4.55;;;23.60;43.30;;;;;;5030500;28;20206;-46
2021/09/03 09:09:59;;;;;;;5.32;3.90;;;23.50;43.20;;;;;;5029447;28;20619;-46
2021/09/03 09:12:26;;;;;;;5.15;4.00;;;23.60;43.30;;;;;;5029920;28;20309;-44
2021/09/03 09:14:52;;;;;;;5.55;4.28;;;23.60;43.30;;;;;;5030470;28;20224;-48
2021/09/03 09:17:18;;;;;;;5.15;4.22;;;23.60;43.20;;;;;;5031812;28;20248;-46
2021/09/03 09:19:45;;;;;;;5.18;4.25;;;23.60;43.20;;;;;;5033391;28;20217;-45
2021/09/03 09:22:11;;;;;;;6.53;4.40;;;23.60;43.30;;;;;;5033539;28;20234;-43
2021/09/03 09:24:38;;;;;;;6.45;4.00;;;23.60;43.20;;;;;;5033927;28;20245;-43
2021/09/03 09:27:04;;;;;;;4.57;3.85;;;23.60;43.30;;;;;;5033844;28;20228;-44
2021/09/03 09:29:31;;;;;;;4.28;3.85;;;23.60;43.20;;;;;;5033129;28;20311;-49
2021/09/03 09:31:57;;;;;;;7.00;4.15;;;23.60;44.00;;;;;;5032403;28;20315;-46
2021/09/03 09:34:24;;;;;;;5.13;4.07;;;23.60;43.30;;;;;;5033300;28;20207;-48
2021/09/03 09:36:50;;;;;;;5.10;4.20;;;23.60;43.30;;;;;;5033722;28;20202;-48
2021/09/03 09:39:16;;;;;;;5.90;4.63;;;23.60;43.30;;;;;;5033094;28;20207;-44
2021/09/03 09:41:43;;;;;;;6.00;4.22;;;23.60;43.40;;;;;;5033027;28;20694;-43
2021/09/03 09:44:09;;;;;;;5.63;4.80;;;23.60;43.50;;;;;;5033595;28;20584;-49
2021/09/03 09:46:36;;;;;;;5.82;4.57;;;23.60;43.60;;;;;;5033556;28;20309;-43
2021/09/03 09:49:03;;;;;;;4.88;4.18;;;23.60;43.60;;;;;;5033215;28;20225;-45
2021/09/03 09:51:30;;;;;;;5.05;4.43;;;23.60;43.70;;;;;;5032568;28;20198;-51
2021/09/03 09:53:56;;;;;;;5.57;3.90;;;23.70;43.90;;;;;;5033127;28;20202;-43
2021/09/03 09:56:23;;;;;;;4.70;4.22;;;23.60;43.80;;;;;;5032758;28;20198;-46
2021/09/03 09:58:49;;;;;;;6.05;4.63;;;23.60;43.80;;;;;;5033275;28;20238;-45
2021/09/03 10:01:15;;;;;;;5.78;4.30;;;23.70;44.00;;;;;;5033000;28;20327;-48
2021/09/03 10:03:42;;;;;;;4.80;4.18;;;23.70;44.60;;;;;;5033040;28;20575;-45
2021/09/03 10:06:08;;;;;;;5.45;4.30;;;23.70;44.00;;;;;;5026217;28;20544;-49
2021/09/03 10:08:35;;;;;;;4.90;3.88;;;23.70;44.00;;;;;;5030614;28;20203;-45
2021/09/03 10:11:01;;;;;;;4.68;3.95;;;23.70;44.00;;;;;;5032906;28;20209;-47
2021/09/03 10:13:28;;;;;;;4.70;3.75;;;23.70;44.00;;;;;;5032583;28;20298;-44
2021/09/03 10:15:54;;;;;;;5.40;4.03;;;23.70;44.00;;;;;;5033144;28;20238;-46
2021/09/03 10:18:21;;;;;;;5.85;4.13;;;23.70;44.00;;;;;;5032654;28;20198;-45
2021/09/03 10:20:47;;;;;;;4.30;3.88;;;23.70;44.00;;;;;;5032203;28;20257;-47
2021/09/03 10:23:13;;;;;;;4.70;4.20;;;23.70;43.90;;;;;;5032299;28;20233;-48
2021/09/03 10:25:40;;;;;;;5.30;4.22;;;23.70;44.00;;;;;;5032907;28;20209;-48
2021/09/03 10:28:06;;;;;;;5.35;3.60;;;23.70;44.10;;;;;;5032325;28;20293;-48
2021/09/03 10:30:33;;;;;;;6.13;4.10;;;23.70;44.00;;;;;;5031223;28;20218;-41
2021/09/03 10:33:00;;;;;;;4.82;4.07;;;23.70;44.00;;;;;;5032071;28;20717;-46
2021/09/03 10:35:26;;;;;;;5.30;3.88;;;23.70;44.00;;;;;;5030802;28;20204;-46
2021/09/03 10:37:54;;;;;;;4.75;3.75;;;23.70;44.00;;;;;;5032275;28;20214;-44
2021/09/03 10:40:21;;;;;;;5.07;4.28;;;23.70;44.00;;;;;;5032295;28;20289;-42
2021/09/03 10:42:49;;;;;;;4.07;3.53;;;23.70;44.00;;;;;;5030782;28;20322;-41
2021/09/03 10:45:16;;;;;;;5.25;3.92;;;23.70;44.00;;;;;;5014071;28;20296;-47
2021/09/03 10:47:45;;;;;;;5.13;4.22;;;23.70;44.10;;;;;;5027149;28;20211;-42
2021/09/03 10:50:11;;;;;;;4.10;3.75;;;23.70;44.20;;;;;;5031439;28;20285;-48
2021/09/03 10:52:37;;;;;;;5.32;4.07;;;23.70;43.90;;;;;;5031785;28;20227;-45
2021/09/03 10:55:04;;;;;;;4.47;3.90;;;23.70;43.90;;;;;;5032425;28;20210;-46
2021/09/03 10:57:30;;;;;;;5.50;3.90;;;23.70;44.00;;;;;;5031688;28;20198;-44
2021/09/03 10:59:57;;;;;;;4.35;3.90;;;23.70;44.00;;;;;;5031452;28;20203;-43
2021/09/03 11:02:23;;;;;;;4.68;3.80;;;23.70;43.90;;;;;;5031972;28;20229;-45
2021/09/03 11:04:50;;;;;;;5.00;3.90;;;23.70;43.80;;;;;;5031677;28;20217;-43
2021/09/03 11:07:16;;;;;;;4.60;3.90;;;23.70;43.90;;;;;;5031786;28;20224;-43
2021/09/03 11:09:42;;;;;;;3.95;3.55;;;23.70;43.90;;;;;;5031533;28;20681;-41
2021/09/03 11:12:09;;;;;;;3.97;3.38;;;23.70;43.80;;;;;;5024892;28;20269;-41
2021/09/03 11:14:36;;;;;;;4.65;3.60;;;23.70;43.90;;;;;;5011693;28;20214;-41
2021/09/03 11:17:02;;;;;;;5.00;4.50;;;23.70;43.90;;;;;;5021885;28;20304;-46
2021/09/03 11:19:30;;;;;;;4.65;4.10;;;23.70;44.50;;;;;;5031607;28;20209;-46
2021/09/03 11:21:58;;;;;;;3.90;3.50;;;23.70;43.80;;;;;;5031730;28;20226;-45
2021/09/03 11:24:24;;;;;;;4.57;3.63;;;23.70;43.80;;;;;;5031142;28;20278;-41
2021/09/03 11:26:50;;;;;;;4.65;3.97;;;23.70;43.80;;;;;;5031540;28;20285;-48
2021/09/03 11:29:17;;;;;;;4.10;3.58;;;23.70;43.70;;;;;;5031128;28;20218;-45
2021/09/03 11:31:43;;;;;;;5.15;4.07;;;23.70;43.80;;;;;;5031669;28;20222;-42
2021/09/03 11:34:10;;;;;;;4.80;4.30;;;23.70;43.80;;;;;;5030268;28;20209;-42
2021/09/03 11:36:36;;;;;;;4.75;4.22;;;23.70;43.70;;;;;;5030758;28;20206;-44
2021/09/03 11:39:03;;;;;;;4.85;4.35;;;23.70;43.80;;;;;;5030630;28;20209;-41
2021/09/03 11:41:29;;;;;;;4.40;4.00;;;23.70;43.80;;;;;;5026579;28;20344;-41
2021/09/03 11:43:56;;;;;;;3.80;3.50;;;23.70;43.70;;;;;;5028932;28;20234;-43
2021/09/03 11:46:22;;;;;;;5.95;4.03;;;23.70;43.80;;;;;;5031247;28;20206;-43
2021/09/03 11:48:49;;;;;;;6.10;4.13;;;23.70;44.20;;;;;;5028709;28;20389;-45
2021/09/03 11:51:15;;;;;;;4.53;3.63;;;23.70;44.00;;;;;;5030446;28;20694;-49
2021/09/03 11:53:42;;;;;;;4.95;4.30;;;23.80;44.00;;;;;;5029301;28;20290;-47
2021/09/03 11:56:08;;;;;;;4.75;4.00;;;23.70;44.00;;;;;;5018137;28;20202;-43
2021/09/03 11:58:35;;;;;;;6.07;4.22;;;23.70;44.20;;;;;;5012405;28;20199;-48
2021/09/03 12:01:01;;;;;;;5.15;4.38;;;23.80;44.40;;;;;;5030220;28;20293;-48
2021/09/03 12:03:28;;;;;;;6.28;4.25;;;23.80;44.40;;;;;;5026993;28;20337;-46
2021/09/03 12:05:54;;;;;;;5.80;4.75;;;23.80;44.30;;;;;;5019945;28;20234;-44
2021/09/03 12:08:21;;;;;;;6.88;4.63;;;23.80;44.20;;;;;;5030537;28;20224;-49
2021/09/03 12:10:47;;;;;;;4.60;4.20;;;23.80;44.20;;;;;;5028820;28;20581;-45
2021/09/03 12:13:14;;;;;;;5.15;4.65;;;23.80;44.10;;;;;;5029405;28;20862;-47
2021/09/03 12:15:40;;;;;;;5.68;4.90;;;23.80;44.20;;;;;;5029973;28;20228;-43
2021/09/03 12:18:07;;;;;;;8.50;5.20;;;23.70;44.20;;;;;;5029333;28;20372;-42
2021/09/03 12:20:33;;;;;;;5.93;5.20;;;23.80;44.40;;;;;;5027903;28;20204;-44
2021/09/03 12:22:59;;;;;;;7.78;4.82;;;23.80;44.30;;;;;;5028728;28;20338;-43
2021/09/03 12:25:26;;;;;;;5.85;5.15;;;23.80;44.50;;;;;;5028851;28;20210;-46
2021/09/03 12:27:52;;;;;;;6.85;4.70;;;23.80;44.40;;;;;;5029822;28;20206;-45
2021/09/03 12:30:19;;;;;;;9.15;4.95;;;23.80;44.40;;;;;;5025275;28;20217;-48
2021/09/03 12:32:45;;;;;;;5.47;4.70;;;23.80;44.50;;;;;;5021186;28;20199;-45
2021/09/03 12:35:12;;;;;;;6.07;5.30;;;23.80;44.70;;;;;;5013555;28;20207;-44
2021/09/03 12:37:38;;;;;;;7.25;5.45;;;23.80;44.80;;;;;;5028526;28;20207;-47
2021/09/03 12:40:04;;;;;;;6.75;4.90;;;23.80;45.10;;;;;;5028264;28;20302;-45
2021/09/03 12:42:31;;;;;;;7.40;4.90;;;23.80;45.30;;;;;;5030174;28;20206;-46